Time;durP1;ratioP1;P1;durP2;ratioP2;P2;SDS_P1;SDS_P2;PMS_P1;PMS_P2;Temp;Humidity;BMP_temperature;BMP_pressure;BME280_temperature;BME280_humidity;BME280_pressure;Samples;Min_cycle;Max_cycle;Signal;HPM_P1;HPM_P2
2024/01/18 00:00:50;;;;;;;2.60;0.77;;;-4.80;97.40;;;;;;6342803;22;20030;-87
2024/01/18 00:03:15;;;;;;;3.17;0.80;;;-4.80;97.80;;;;;;6342848;22;20010;-88
2024/01/18 00:05:41;;;;;;;1.05;0.60;;;-4.70;98.00;;;;;;6342947;22;20013;-87
2024/01/18 00:08:07;;;;;;;1.15;0.80;;;-4.70;98.20;;;;;;6343382;22;20022;-88
2024/01/18 00:10:32;;;;;;;3.95;1.10;;;-4.70;98.30;;;;;;6343719;22;20013;-87
2024/01/18 00:12:58;;;;;;;2.75;1.23;;;-4.70;98.50;;;;;;6342796;22;20008;-88
2024/01/18 00:15:24;;;;;;;5.45;1.42;;;-4.80;98.60;;;;;;6343095;22;20059;-87
2024/01/18 00:17:50;;;;;;;19.08;4.20;;;-4.80;98.60;;;;;;6342816;22;20329;-87
2024/01/18 00:20:16;;;;;;;15.77;3.05;;;-4.80;98.80;;;;;;6343259;22;19994;-87
2024/01/18 00:22:42;;;;;;;23.25;4.20;;;-4.90;99.00;;;;;;6343054;22;20675;-90
2024/01/18 00:25:08;;;;;;;7.30;2.47;;;-4.90;99.00;;;;;;6343593;22;20048;-89
2024/01/18 00:27:34;;;;;;;9.18;2.80;;;-4.90;99.00;;;;;;6342950;22;20010;-89
2024/01/18 00:29:59;;;;;;;9.60;2.17;;;-5.00;99.30;;;;;;6342801;22;20006;-88
2024/01/18 00:32:25;;;;;;;11.82;3.40;;;-5.00;99.40;;;;;;6342770;22;20002;-88
2024/01/18 00:34:51;;;;;;;10.38;3.20;;;-5.00;99.50;;;;;;6343020;22;20009;-88
2024/01/18 00:37:17;;;;;;;8.80;2.25;;;-5.10;99.70;;;;;;6342813;22;20045;-87
2024/01/18 00:39:43;;;;;;;15.45;3.60;;;-5.10;99.90;;;;;;6342716;22;20026;-87
2024/01/18 00:42:09;;;;;;;12.70;4.05;;;-5.10;99.90;;;;;;6342779;22;20429;-88
2024/01/18 00:44:35;;;;;;;15.77;4.88;;;-5.10;99.90;;;;;;6342698;22;20400;-88
2024/01/18 00:47:01;;;;;;;10.90;3.38;;;-5.10;99.90;;;;;;6343053;22;20025;-89
2024/01/18 00:49:27;;;;;;;10.80;3.20;;;-5.20;99.90;;;;;;6343361;22;20009;-88
2024/01/18 00:51:53;;;;;;;12.93;3.92;;;-5.20;99.90;;;;;;6342931;22;20003;-88
2024/01/18 00:54:18;;;;;;;12.70;3.35;;;-5.30;99.90;;;;;;6343010;22;20010;-88
2024/01/18 00:56:44;;;;;;;11.27;2.92;;;-5.30;99.90;;;;;;6342750;22;20014;-90
2024/01/18 00:59:10;;;;;;;7.82;2.45;;;-5.40;99.90;;;;;;6343029;22;20010;-89
2024/01/18 01:01:35;;;;;;;12.15;3.78;;;-5.30;99.90;;;;;;6343091;22;20582;-88
2024/01/18 01:04:01;;;;;;;8.13;3.38;;;-5.40;99.90;;;;;;6342720;22;20085;-87
2024/01/18 01:06:27;;;;;;;6.30;2.22;;;-5.40;99.90;;;;;;6342663;22;20009;-86
2024/01/18 01:08:53;;;;;;;7.55;2.42;;;-5.40;99.90;;;;;;6370679;22;20006;-87
2024/01/18 01:11:19;;;;;;;8.02;2.13;;;-5.40;99.90;;;;;;6342574;22;20010;-87
2024/01/18 01:13:45;;;;;;;6.55;2.25;;;-5.40;99.90;;;;;;6342775;22;20385;-87
2024/01/18 01:16:11;;;;;;;8.73;1.95;;;-5.40;99.90;;;;;;6342507;22;20037;-87
2024/01/18 01:18:37;;;;;;;6.35;1.63;;;-5.30;99.90;;;;;;6342756;22;20037;-89
2024/01/18 01:21:04;;;;;;;3.17;1.10;;;-5.30;99.90;;;;;;6342625;22;20022;-86
2024/01/18 01:23:30;;;;;;;7.72;1.65;;;-5.30;99.90;;;;;;6342867;22;20253;-88
2024/01/18 01:25:56;;;;;;;2.90;0.80;;;-5.30;99.90;;;;;;6342622;22;20016;-87
2024/01/18 01:28:22;;;;;;;14.02;4.40;;;-5.30;99.90;;;;;;6342430;22;20006;-88
2024/01/18 01:30:48;;;;;;;15.30;4.75;;;-5.30;99.90;;;;;;6342540;22;20030;-87
2024/01/18 01:33:14;;;;;;;11.60;4.30;;;-5.40;99.90;;;;;;6342731;22;19999;-87
2024/01/18 01:35:40;;;;;;;11.50;4.00;;;-5.50;99.90;;;;;;6342895;22;20041;-88
2024/01/18 01:38:06;;;;;;;11.93;3.72;;;-5.50;99.90;;;;;;6345429;22;20006;-87
2024/01/18 01:40:32;;;;;;;9.32;3.47;;;-5.70;99.90;;;;;;6348510;22;20010;-87
2024/01/18 01:42:57;;;;;;;9.43;4.43;;;-5.70;99.90;;;;;;6342581;22;20454;-87
2024/01/18 01:45:23;;;;;;;12.68;4.07;;;-5.70;99.90;;;;;;6342789;22;20003;-87
2024/01/18 01:47:50;;;;;;;11.00;3.10;;;-5.70;99.90;;;;;;6342406;22;20307;-87
2024/01/18 01:50:16;;;;;;;8.15;2.58;;;-5.70;99.90;;;;;;6342591;22;20006;-88
2024/01/18 01:52:43;;;;;;;5.70;2.40;;;-5.70;99.90;;;;;;6342366;22;20012;-89
2024/01/18 01:55:09;;;;;;;7.65;2.70;;;-5.60;99.90;;;;;;6342908;22;20018;-89
2024/01/18 01:57:36;;;;;;;6.18;2.42;;;-5.60;99.90;;;;;;6342338;22;20024;-88
2024/01/18 02:00:03;;;;;;;5.65;2.17;;;-5.60;99.90;;;;;;6342596;22;20002;-88
2024/01/18 02:02:30;;;;;;;5.82;2.30;;;-5.60;99.90;;;;;;6342760;22;20006;-88
2024/01/18 02:04:56;;;;;;;4.80;2.47;;;-5.50;99.90;;;;;;6342740;22;20047;-88
2024/01/18 02:07:24;;;;;;;10.18;2.08;;;-5.60;99.90;;;;;;6342852;22;19999;-88
2024/01/18 02:09:50;;;;;;;5.03;2.10;;;-5.60;99.90;;;;;;6342482;22;20473;-88
2024/01/18 02:12:17;;;;;;;5.85;2.03;;;-5.60;99.90;;;;;;6344636;22;20013;-88
2024/01/18 02:14:44;;;;;;;5.57;2.65;;;-5.60;99.90;;;;;;6347444;22;20002;-88
2024/01/18 02:17:10;;;;;;;5.75;2.40;;;-5.60;99.90;;;;;;6344512;22;20014;-89
2024/01/18 02:19:35;;;;;;;3.50;2.05;;;-5.60;99.90;;;;;;6342546;22;20010;-88
2024/01/18 02:22:04;;;;;;;6.97;2.30;;;-5.60;99.90;;;;;;6341905;22;20011;-89
2024/01/18 02:24:40;;;;;;;6.85;2.42;;;-5.70;99.90;;;;;;6342369;22;19999;-88
2024/01/18 02:27:06;;;;;;;4.65;1.77;;;-5.70;99.90;;;;;;6342480;22;19995;-88
2024/01/18 02:29:32;;;;;;;5.03;1.70;;;-5.80;99.90;;;;;;6342563;22;20021;-88
2024/01/18 02:31:57;;;;;;;3.03;1.55;;;-5.70;99.90;;;;;;6342878;22;20006;-88
2024/01/18 02:34:24;;;;;;;3.85;1.30;;;-5.80;99.90;;;;;;6343550;22;19998;-88
2024/01/18 02:36:50;;;;;;;3.10;1.40;;;-5.80;99.90;;;;;;6343020;22;20018;-88
2024/01/18 02:39:15;;;;;;;2.83;1.50;;;-5.90;99.90;;;;;;6342832;22;20425;-88
2024/01/18 02:41:41;;;;;;;2.95;1.50;;;-5.90;99.90;;;;;;6342872;22;20013;-89
2024/01/18 02:44:08;;;;;;;3.03;1.30;;;-6.00;99.90;;;;;;6344739;22;19998;-89
2024/01/18 02:46:35;;;;;;;5.15;1.55;;;-5.90;99.90;;;;;;6344062;22;20010;-89
2024/01/18 02:49:01;;;;;;;3.38;1.33;;;-5.90;99.90;;;;;;6343520;22;20010;-89
2024/01/18 02:51:27;;;;;;;4.15;1.50;;;-5.80;99.90;;;;;;6342913;22;20006;-89
2024/01/18 02:53:52;;;;;;;5.57;1.45;;;-5.80;99.90;;;;;;6344279;22;19998;-89
2024/01/18 02:56:19;;;;;;;1.88;0.98;;;-5.80;99.90;;;;;;6345017;22;20049;-89
2024/01/18 02:58:45;;;;;;;3.03;1.30;;;-5.70;99.90;;;;;;6373676;22;20041;-88
2024/01/18 03:01:12;;;;;;;3.58;1.02;;;-5.70;99.90;;;;;;6345310;22;20006;-89
2024/01/18 03:03:38;;;;;;;4.50;1.60;;;-5.70;99.90;;;;;;6345524;22;20003;-87
2024/01/18 03:06:04;;;;;;;6.20;1.85;;;-5.80;99.90;;;;;;6344732;22;20002;-90
2024/01/18 03:08:29;;;;;;;2.97;1.30;;;-5.80;99.90;;;;;;6344882;22;20683;-89
2024/01/18 03:10:55;;;;;;;6.75;2.25;;;-5.90;99.90;;;;;;6344655;22;20002;-89
2024/01/18 03:13:21;;;;;;;6.43;2.38;;;-5.90;99.90;;;;;;6345050;22;20002;-90
2024/01/18 03:15:47;;;;;;;10.57;3.05;;;-5.90;99.90;;;;;;6344870;22;20422;-90
2024/01/18 03:18:12;;;;;;;3.88;1.52;;;-5.90;99.90;;;;;;6345446;22;20011;-90
2024/01/18 03:20:38;;;;;;;1.80;0.98;;;-5.90;99.90;;;;;;6344578;22;20417;-89
2024/01/18 03:23:04;;;;;;;2.50;1.02;;;-5.90;99.90;;;;;;6344905;22;19998;-89
2024/01/18 03:25:30;;;;;;;1.83;0.77;;;-5.90;99.90;;;;;;6344675;22;20047;-90
2024/01/18 03:27:55;;;;;;;1.30;0.70;;;-5.90;99.90;;;;;;6344618;22;20006;-90
2024/01/18 03:30:21;;;;;;;3.05;1.42;;;-5.90;99.90;;;;;;6344432;22;20078;-89
2024/01/18 03:32:47;;;;;;;3.97;1.75;;;-5.90;99.90;;;;;;6344148;22;20013;-89
2024/01/18 03:35:13;;;;;;;6.57;2.53;;;-6.00;99.90;;;;;;6372841;22;20323;-90
2024/01/18 03:37:38;;;;;;;9.13;3.00;;;-6.00;99.90;;;;;;6345127;22;20146;-90
2024/01/18 03:40:08;;;;;;;9.32;3.42;;;-6.00;99.90;;;;;;6345666;22;20077;-87
2024/01/18 03:42:34;;;;;;;10.47;3.47;;;-6.10;99.90;;;;;;6344989;22;20021;-89
2024/01/18 03:44:59;;;;;;;4.20;1.77;;;-6.10;99.90;;;;;;6344743;22;20006;-88
2024/01/18 03:47:25;;;;;;;3.97;1.90;;;-6.10;99.90;;;;;;6345072;22;20026;-89
2024/01/18 03:49:52;;;;;;;3.15;1.00;;;-6.20;99.90;;;;;;6344185;22;20056;-89
2024/01/18 03:52:18;;;;;;;5.90;1.83;;;-6.10;99.90;;;;;;6344412;22;20145;-89
2024/01/18 03:54:43;;;;;;;6.35;2.78;;;-6.10;99.90;;;;;;6344845;22;20002;-88
2024/01/18 03:57:09;;;;;;;5.35;2.38;;;-6.10;99.90;;;;;;6345234;22;20064;-90
2024/01/18 03:59:35;;;;;;;4.03;2.00;;;-6.10;99.90;;;;;;6345446;22;20029;-90
2024/01/18 04:02:01;;;;;;;4.60;1.75;;;-6.10;99.90;;;;;;6359802;22;20150;-91
2024/01/18 04:04:26;;;;;;;5.57;1.98;;;-6.20;99.90;;;;;;6348373;22;20003;-90
2024/01/18 04:06:52;;;;;;;2.78;1.58;;;-6.10;99.90;;;;;;6344383;22;20010;-89
2024/01/18 04:09:19;;;;;;;8.23;1.90;;;-6.10;99.90;;;;;;6344272;22;20006;-90
2024/01/18 04:11:45;;;;;;;3.03;0.93;;;-6.20;99.90;;;;;;6344523;22;20032;-90
2024/01/18 04:14:12;;;;;;;3.78;1.35;;;-6.10;99.90;;;;;;6344439;22;20325;-90
2024/01/18 04:16:38;;;;;;;4.32;1.10;;;-6.00;99.90;;;;;;6344206;22;20014;-90
2024/01/18 04:19:04;;;;;;;4.13;0.85;;;-5.90;99.90;;;;;;6344119;22;20029;-90
2024/01/18 04:21:32;;;;;;;1.27;0.70;;;-5.90;99.90;;;;;;6344079;22;20005;-90
2024/01/18 04:23:57;;;;;;;4.00;1.58;;;-5.80;99.90;;;;;;6343815;22;19995;-90
2024/01/18 04:26:24;;;;;;;1.50;1.00;;;-5.80;99.90;;;;;;6344067;22;20049;-92
2024/01/18 04:28:51;;;;;;;3.47;0.70;;;-5.70;99.90;;;;;;6344435;22;20027;-89
2024/01/18 04:31:16;;;;;;;7.75;0.68;;;-5.70;99.90;;;;;;6345156;22;20026;-89
2024/01/18 04:33:42;;;;;;;5.53;1.13;;;-5.70;99.90;;;;;;6345492;22;20033;-88
2024/01/18 04:36:08;;;;;;;1.90;0.68;;;-5.60;99.90;;;;;;6344359;22;20382;-89
2024/01/18 04:38:34;;;;;;;2.17;0.50;;;-5.60;99.90;;;;;;6344024;22;20384;-89
2024/01/18 04:41:00;;;;;;;1.38;0.82;;;-5.50;99.90;;;;;;6344534;22;20006;-88
2024/01/18 04:43:25;;;;;;;1.48;0.85;;;-5.50;99.90;;;;;;6345108;22;20021;-88
2024/01/18 04:45:51;;;;;;;6.30;0.88;;;-5.50;99.90;;;;;;6345590;22;20437;-89
2024/01/18 04:48:18;;;;;;;0.77;0.60;;;-5.50;99.90;;;;;;6345679;22;20426;-88
2024/01/18 04:50:44;;;;;;;4.43;1.42;;;-5.50;99.90;;;;;;6345383;22;20002;-89
2024/01/18 04:53:10;;;;;;;0.55;0.40;;;-5.60;99.90;;;;;;6345982;22;20436;-90
2024/01/18 04:55:35;;;;;;;0.75;0.60;;;-5.60;99.90;;;;;;6355933;22;20014;-91
2024/01/18 04:58:01;;;;;;;2.33;0.85;;;-5.60;99.90;;;;;;6358236;22;20040;-88
2024/01/18 05:00:28;;;;;;;3.88;0.73;;;-5.60;99.90;;;;;;6357939;22;20002;-89
2024/01/18 05:02:53;;;;;;;2.58;0.80;;;-5.60;99.90;;;;;;6356472;22;20010;-87
2024/01/18 05:05:19;;;;;;;2.17;1.10;;;-5.60;99.90;;;;;;6361828;22;19994;-89
2024/01/18 05:07:46;;;;;;;1.90;0.73;;;-5.60;99.90;;;;;;6370965;22;19999;-89
2024/01/18 05:10:12;;;;;;;1.17;0.77;;;-5.60;99.90;;;;;;6369398;22;19995;-89
2024/01/18 05:12:38;;;;;;;1.27;0.82;;;-5.60;99.90;;;;;;6371075;22;20014;-88
2024/01/18 05:15:04;;;;;;;1.85;0.80;;;-5.60;99.90;;;;;;6371106;22;19990;-89
2024/01/18 05:17:37;;;;;;;0.95;0.60;;;-5.60;99.90;;;;;;6365007;22;20087;-90
2024/01/18 05:20:07;;;;;;;0.47;0.45;;;-5.60;99.90;;;;;;6360544;22;20006;-90
2024/01/18 05:22:33;;;;;;;3.83;1.38;;;-5.60;99.90;;;;;;6350090;22;20017;-89
2024/01/18 05:25:00;;;;;;;3.00;1.10;;;-5.60;99.90;;;;;;6348603;22;19998;-89
2024/01/18 05:27:30;;;;;;;2.38;0.88;;;-5.60;99.90;;;;;;6344633;22;20437;-89
2024/01/18 05:29:56;;;;;;;1.08;0.80;;;-5.70;99.90;;;;;;6344150;22;20032;-88
2024/01/18 05:32:22;;;;;;;2.60;0.50;;;-5.60;99.90;;;;;;6344852;22;20009;-89
2024/01/18 05:34:51;;;;;;;2.28;1.05;;;-5.70;99.90;;;;;;6345047;22;20010;-91
2024/01/18 05:37:18;;;;;;;2.38;0.70;;;-5.70;99.90;;;;;;6346372;22;20014;-88
2024/01/18 05:39:44;;;;;;;2.67;1.00;;;-5.80;99.90;;;;;;6343797;22;19995;-88
2024/01/18 05:42:10;;;;;;;1.45;0.77;;;-5.80;99.90;;;;;;6344028;22;20006;-90
2024/01/18 05:44:36;;;;;;;1.88;1.02;;;-5.80;99.90;;;;;;6343422;22;20025;-89
2024/01/18 05:47:02;;;;;;;2.65;0.90;;;-5.80;99.90;;;;;;6343592;22;20060;-89
2024/01/18 05:49:28;;;;;;;2.25;0.77;;;-5.70;99.90;;;;;;6343937;22;20011;-90
2024/01/18 05:51:54;;;;;;;3.67;0.77;;;-5.70;99.90;;;;;;6343836;22;20456;-91
2024/01/18 05:54:19;;;;;;;1.63;0.70;;;-5.70;99.90;;;;;;6343558;22;20429;-88
2024/01/18 05:56:46;;;;;;;2.15;1.02;;;-5.60;99.90;;;;;;6343609;22;20438;-89
2024/01/18 05:59:12;;;;;;;2.28;1.17;;;-5.60;99.90;;;;;;6344479;22;20010;-89
2024/01/18 06:01:41;;;;;;;2.38;1.00;;;-5.60;99.90;;;;;;6371983;22;20003;-90
2024/01/18 06:04:08;;;;;;;1.33;0.57;;;-5.50;99.90;;;;;;6344063;22;20003;-88
2024/01/18 06:06:34;;;;;;;3.25;0.77;;;-5.60;99.90;;;;;;6343642;22;20089;-89
2024/01/18 06:09:00;;;;;;;2.13;0.60;;;-5.60;99.90;;;;;;6343833;22;20422;-88
2024/01/18 06:11:25;;;;;;;2.05;0.80;;;-5.50;99.90;;;;;;6343911;22;19998;-90
2024/01/18 06:13:51;;;;;;;1.55;0.73;;;-5.50;99.90;;;;;;6343379;22;20026;-88
2024/01/18 06:16:17;;;;;;;1.15;0.80;;;-5.50;99.90;;;;;;6343482;22;20090;-90
2024/01/18 06:18:44;;;;;;;1.15;1.02;;;-5.50;99.90;;;;;;6343909;22;20464;-89
2024/01/18 06:21:10;;;;;;;1.23;0.73;;;-5.60;99.90;;;;;;6344147;22;20006;-89
2024/01/18 06:23:36;;;;;;;2.08;0.40;;;-5.60;99.90;;;;;;6343920;22;20317;-90
2024/01/18 06:26:02;;;;;;;2.15;0.60;;;-5.60;99.90;;;;;;6345087;22;20549;-90
2024/01/18 06:28:28;;;;;;;2.35;0.85;;;-5.60;99.90;;;;;;6344917;22;20009;-88
2024/01/18 06:30:54;;;;;;;2.40;0.60;;;-5.60;99.90;;;;;;6358601;22;20434;-89
2024/01/18 06:33:20;;;;;;;1.08;0.50;;;-5.60;99.90;;;;;;6358994;22;20006;-88
2024/01/18 06:35:46;;;;;;;2.67;0.90;;;-5.60;99.90;;;;;;6345708;22;20406;-89
2024/01/18 06:38:13;;;;;;;2.05;0.90;;;-5.60;99.90;;;;;;6344643;22;20017;-89
2024/01/18 06:40:40;;;;;;;2.03;0.70;;;-5.60;99.90;;;;;;6318735;22;20007;-89
2024/01/18 06:43:06;;;;;;;2.22;0.80;;;-5.50;99.90;;;;;;6344136;22;20434;-90
2024/01/18 06:45:32;;;;;;;2.75;0.95;;;-5.50;99.90;;;;;;6344352;22;20003;-88
2024/01/18 06:47:57;;;;;;;0.98;0.75;;;-5.50;99.90;;;;;;6352011;22;20010;-89
2024/01/18 06:50:23;;;;;;;1.35;0.70;;;-5.60;99.90;;;;;;6370160;22;19986;-87
2024/01/18 06:52:49;;;;;;;2.15;0.80;;;-5.60;99.90;;;;;;6365622;22;20063;-89
2024/01/18 06:55:15;;;;;;;0.77;0.50;;;-5.50;99.90;;;;;;6362564;22;20031;-89
2024/01/18 06:57:40;;;;;;;0.73;0.50;;;-5.60;99.90;;;;;;6360446;22;20137;-89
2024/01/18 07:00:07;;;;;;;1.50;0.95;;;-5.60;99.90;;;;;;6363126;22;20002;-88
2024/01/18 07:02:33;;;;;;;1.33;0.80;;;-5.60;99.90;;;;;;6365824;22;20005;-89
2024/01/18 07:04:59;;;;;;;1.90;0.55;;;-5.60;99.90;;;;;;6363795;22;19998;-91
2024/01/18 07:07:25;;;;;;;4.88;0.70;;;-5.60;99.90;;;;;;6365071;22;19986;-89
2024/01/18 07:09:51;;;;;;;1.50;0.80;;;-5.60;99.90;;;;;;6362761;22;20067;-90
2024/01/18 07:12:17;;;;;;;0.70;0.70;;;-5.50;99.90;;;;;;6364563;22;20021;-90
2024/01/18 07:14:44;;;;;;;2.67;0.88;;;-5.50;99.90;;;;;;6352786;22;20006;-90
2024/01/18 07:17:12;;;;;;;4.22;0.60;;;-5.50;99.90;;;;;;6351738;22;20059;-90
2024/01/18 07:19:38;;;;;;;3.05;0.73;;;-5.50;99.90;;;;;;6345637;22;20002;-91
2024/01/18 07:22:04;;;;;;;1.35;0.88;;;-5.50;99.90;;;;;;6345242;22;20010;-90
2024/01/18 07:24:30;;;;;;;3.58;1.20;;;-5.50;99.90;;;;;;6347716;22;20023;-90
2024/01/18 07:26:57;;;;;;;1.90;1.10;;;-5.40;99.90;;;;;;6352952;22;20092;-90
2024/01/18 07:29:23;;;;;;;0.88;0.65;;;-5.40;99.90;;;;;;6346214;22;19998;-91
2024/01/18 07:31:50;;;;;;;4.28;0.60;;;-5.40;99.90;;;;;;6345754;22;20034;-90
2024/01/18 07:34:16;;;;;;;2.63;0.73;;;-5.30;99.90;;;;;;6346623;22;20434;-90
2024/01/18 07:36:43;;;;;;;0.93;0.65;;;-5.30;99.90;;;;;;6345169;22;20006;-91
2024/01/18 07:39:09;;;;;;;4.35;2.00;;;-5.30;99.90;;;;;;6345434;22;20002;-90
2024/01/18 07:41:36;;;;;;;5.78;2.90;;;-5.20;99.90;;;;;;6345619;22;20052;-91
2024/01/18 07:44:02;;;;;;;5.88;2.70;;;-5.20;99.90;;;;;;6345071;22;20006;-90
2024/01/18 07:46:28;;;;;;;5.32;1.73;;;-5.30;99.90;;;;;;6345081;22;20002;-90
2024/01/18 07:48:53;;;;;;;8.55;2.88;;;-5.30;99.90;;;;;;6346418;22;20009;-91
2024/01/18 07:51:19;;;;;;;5.10;2.05;;;-5.30;99.90;;;;;;6344764;22;20349;-90
2024/01/18 07:53:45;;;;;;;4.38;1.80;;;-5.30;99.90;;;;;;6344951;22;20002;-90
2024/01/18 07:56:11;;;;;;;3.83;1.40;;;-5.30;99.90;;;;;;6345068;22;20022;-91
2024/01/18 07:58:40;;;;;;;1.25;1.08;;;-5.30;99.90;;;;;;6344288;22;20097;-90
2024/01/18 08:01:07;;;;;;;1.20;1.02;;;-5.30;99.90;;;;;;6345394;22;20017;-90
2024/01/18 08:03:32;;;;;;;15.00;4.78;;;-5.30;99.90;;;;;;6345774;22;20055;-90
2024/01/18 08:05:58;;;;;;;5.38;2.60;;;-5.30;99.90;;;;;;6345037;22;19999;-91
2024/01/18 08:08:24;;;;;;;6.75;1.60;;;-5.30;99.90;;;;;;6344967;22;20442;-90
2024/01/18 08:10:50;;;;;;;8.05;3.35;;;-5.30;99.90;;;;;;6344349;22;20106;-90
2024/01/18 08:13:15;;;;;;;8.07;2.70;;;-5.10;99.90;;;;;;6345030;22;19999;-91
2024/01/18 08:15:41;;;;;;;4.15;2.08;;;-5.00;99.90;;;;;;6347103;22;20007;-91
2024/01/18 08:18:07;;;;;;;7.65;3.25;;;-4.90;99.90;;;;;;6321791;22;20081;-91
2024/01/18 08:20:33;;;;;;;10.70;3.72;;;-4.90;99.90;;;;;;6345966;22;20040;-90
2024/01/18 08:22:58;;;;;;;10.13;3.13;;;-4.80;99.90;;;;;;6344889;22;20007;-90
2024/01/18 08:25:24;;;;;;;13.68;3.00;;;-4.80;99.90;;;;;;6343711;22;20509;-91
2024/01/18 08:27:54;;;;;;;7.80;3.05;;;-4.70;99.90;;;;;;6346207;22;20002;-90
2024/01/18 08:30:20;;;;;;;9.45;3.33;;;-4.70;99.90;;;;;;6345974;22;20002;-91
2024/01/18 08:32:46;;;;;;;7.80;3.15;;;-4.60;99.90;;;;;;6371774;22;20010;-90
2024/01/18 08:35:12;;;;;;;11.13;5.43;;;-4.70;99.90;;;;;;6344323;22;20049;-91
2024/01/18 08:37:37;;;;;;;12.48;4.72;;;-4.80;99.90;;;;;;6345852;22;20017;-90
2024/01/18 08:40:05;;;;;;;6.22;2.60;;;-4.80;99.90;;;;;;6343794;22;20059;-90
2024/01/18 08:42:30;;;;;;;3.63;0.95;;;-4.80;99.90;;;;;;6344146;22;20010;-91
2024/01/18 08:44:57;;;;;;;4.50;1.30;;;-4.80;99.90;;;;;;6343991;22;20127;-92
2024/01/18 08:47:23;;;;;;;2.72;0.90;;;-4.60;99.90;;;;;;6346895;22;20013;-90
2024/01/18 08:49:49;;;;;;;2.53;1.70;;;-4.50;99.90;;;;;;6349701;22;20022;-91
2024/01/18 08:52:15;;;;;;;3.53;1.05;;;-4.40;99.90;;;;;;6344593;22;19994;-90
2024/01/18 08:54:44;;;;;;;5.88;1.70;;;-4.30;99.90;;;;;;6344609;22;20002;-91
2024/01/18 08:57:10;;;;;;;5.70;1.10;;;-4.20;99.90;;;;;;6344838;22;20078;-91
2024/01/18 08:59:36;;;;;;;11.45;1.60;;;-4.20;99.90;;;;;;6352155;22;20013;-91
2024/01/18 09:02:02;;;;;;;11.82;2.35;;;-4.10;99.90;;;;;;6352296;22;20085;-92
2024/01/18 09:04:28;;;;;;;5.75;1.63;;;-4.00;99.90;;;;;;6345871;22;20408;-90
2024/01/18 09:06:55;;;;;;;5.45;1.55;;;-3.90;99.90;;;;;;6343765;22;20003;-91
2024/01/18 09:09:20;;;;;;;2.15;1.10;;;-3.90;99.90;;;;;;6343796;22;20002;-90
2024/01/18 09:11:46;;;;;;;1.30;0.70;;;-3.80;99.90;;;;;;6344823;22;20445;-89
2024/01/18 09:14:12;;;;;;;3.97;1.10;;;-3.70;99.90;;;;;;6344695;22;20530;-91
2024/01/18 09:16:38;;;;;;;2.45;1.00;;;-3.50;99.90;;;;;;6344020;22;20045;-91
2024/01/18 09:19:04;;;;;;;4.32;1.02;;;-3.40;99.90;;;;;;6344167;22;20041;-91
2024/01/18 09:21:30;;;;;;;3.53;0.82;;;-3.40;99.90;;;;;;6371620;22;20025;-90
2024/01/18 09:23:56;;;;;;;5.38;1.92;;;-3.30;99.90;;;;;;6345963;22;20006;-88
2024/01/18 09:26:22;;;;;;;3.63;1.10;;;-3.30;99.90;;;;;;6344746;22;20025;-90
2024/01/18 09:28:49;;;;;;;2.72;1.30;;;-3.20;99.90;;;;;;6343806;22;20004;-90
2024/01/18 09:31:16;;;;;;;3.13;1.20;;;-3.10;99.90;;;;;;6344919;22;20090;-90
2024/01/18 09:33:42;;;;;;;5.20;1.40;;;-3.00;99.90;;;;;;6343161;22;20009;-89
2024/01/18 09:36:08;;;;;;;2.83;1.02;;;-2.80;99.90;;;;;;6342856;22;20014;-90
2024/01/18 09:38:34;;;;;;;3.17;1.40;;;-2.70;99.90;;;;;;6343697;22;20081;-91
2024/01/18 09:41:05;;;;;;;6.03;1.73;;;-2.50;99.90;;;;;;6343717;22;20028;-89
2024/01/18 09:43:39;;;;;;;5.70;2.00;;;-2.30;99.90;;;;;;6344298;22;20025;-89
2024/01/18 09:46:07;;;;;;;6.47;1.60;;;-2.10;99.90;;;;;;6342822;22;20013;-91
2024/01/18 09:48:34;;;;;;;5.38;1.52;;;-1.80;99.90;;;;;;6343646;22;20006;-90
2024/01/18 09:51:00;;;;;;;6.78;2.33;;;-1.50;99.90;;;;;;6343547;22;20085;-92
2024/01/18 09:53:27;;;;;;;4.65;1.90;;;-1.30;99.90;;;;;;6343657;22;20112;-89
2024/01/18 09:55:54;;;;;;;5.30;1.92;;;-1.00;99.90;;;;;;6343166;22;20014;-90
2024/01/18 09:58:20;;;;;;;9.50;2.70;;;-0.70;99.90;;;;;;6342818;22;20021;-88
2024/01/18 10:00:57;;;;;;;5.22;1.60;;;-0.40;99.90;;;;;;6342173;22;20002;-88
2024/01/18 10:03:24;;;;;;;4.18;1.27;;;-0.20;99.90;;;;;;6344792;22;20414;-91
2024/01/18 10:05:50;;;;;;;2.15;1.02;;;0.10;99.90;;;;;;6344921;22;20029;-92
2024/01/18 10:08:16;;;;;;;5.53;1.20;;;0.40;99.90;;;;;;6343977;22;19998;-91
2024/01/18 10:10:45;;;;;;;3.75;0.88;;;0.70;99.90;;;;;;6345581;22;20009;-92
2024/01/18 10:13:13;;;;;;;4.63;0.90;;;1.00;99.90;;;;;;6344177;22;20030;-92
2024/01/18 10:15:39;;;;;;;4.45;1.02;;;1.20;99.90;;;;;;6372149;22;20010;-92
2024/01/18 10:18:09;;;;;;;2.90;1.10;;;1.40;99.90;;;;;;6344873;22;20029;-91
2024/01/18 10:20:36;;;;;;;2.00;0.90;;;1.70;99.90;;;;;;6344495;22;20010;-92
2024/01/18 10:23:04;;;;;;;1.02;0.70;;;1.90;99.90;;;;;;6346726;22;20235;-92
2024/01/18 10:25:35;;;;;;;8.20;1.83;;;2.00;99.90;;;;;;6346124;22;20010;-91
2024/01/18 10:28:02;;;;;;;5.90;2.53;;;2.30;99.90;;;;;;6347993;22;19998;-93
2024/01/18 10:30:33;;;;;;;4.55;1.63;;;2.60;99.90;;;;;;6345908;22;20006;-92
2024/01/18 10:33:05;;;;;;;1.25;0.70;;;2.80;99.90;;;;;;6346855;22;20005;-93
2024/01/18 10:35:53;;;;;;;7.68;2.00;;;3.10;99.90;;;;;;6372669;22;20077;-93
2024/01/18 10:38:49;;;;;;;11.50;3.35;;;3.20;99.90;;;;;;6341940;22;20007;-92
2024/01/18 10:41:21;;;;;;;2.17;1.15;;;3.40;99.90;;;;;;6346443;22;20024;-93
2024/01/18 10:43:52;;;;;;;1.98;0.70;;;3.60;99.90;;;;;;6373237;22;20066;-91
2024/01/18 10:46:21;;;;;;;2.92;0.90;;;3.80;99.90;;;;;;6319026;22;20034;-92
2024/01/18 10:48:51;;;;;;;3.08;1.00;;;4.00;99.90;;;;;;6319594;22;20102;-90
2024/01/18 10:51:23;;;;;;;1.65;1.00;;;4.20;99.90;;;;;;6344157;22;20456;-92
2024/01/18 10:53:55;;;;;;;3.00;1.00;;;4.40;99.90;;;;;;6344970;22;20014;-91
2024/01/18 10:56:23;;;;;;;7.93;3.25;;;4.60;99.90;;;;;;6344673;22;20014;-89
2024/01/18 10:58:49;;;;;;;6.18;2.85;;;4.80;99.90;;;;;;6346955;22;20445;-90
2024/01/18 11:01:17;;;;;;;6.93;2.53;;;5.00;99.90;;;;;;6373614;22;20025;-89
2024/01/18 11:03:43;;;;;;;17.45;4.28;;;5.20;99.90;;;;;;6344986;22;20013;-89
2024/01/18 11:06:12;;;;;;;18.20;4.35;;;5.60;99.90;;;;;;6350319;22;20006;-89
2024/01/18 11:08:39;;;;;;;9.40;1.75;;;5.80;99.90;;;;;;6347904;22;20078;-89
2024/01/18 11:11:06;;;;;;;4.57;1.27;;;6.00;99.20;;;;;;6349807;22;20025;-89
2024/01/18 11:13:35;;;;;;;6.93;1.00;;;6.40;98.30;;;;;;6345748;22;19998;-88
2024/01/18 11:16:01;;;;;;;3.50;0.68;;;6.60;96.50;;;;;;6345569;22;20012;-88
2024/01/18 11:18:27;;;;;;;2.50;1.20;;;6.80;95.50;;;;;;6344462;22;20030;-88
2024/01/18 11:21:27;;;;;;;2.97;1.05;;;7.00;94.50;;;;;;6352735;22;20003;-89
2024/01/18 11:23:45;;;;;;;3.17;1.52;;;7.30;93.80;;;;;;6378517;22;20009;-88
2024/01/18 11:26:23;;;;;;;4.93;1.02;;;7.70;92.90;;;;;;6344857;22;20010;-89
2024/01/18 11:28:49;;;;;;;7.43;1.05;;;7.90;91.30;;;;;;6344291;22;20006;-89
2024/01/18 11:31:17;;;;;;;3.20;0.47;;;8.00;90.40;;;;;;6344430;22;20487;-89
2024/01/18 11:33:44;;;;;;;6.75;1.50;;;8.10;89.90;;;;;;6319988;22;20010;-90
2024/01/18 11:36:13;;;;;;;3.28;0.85;;;8.20;88.70;;;;;;6345675;22;20021;-91
2024/01/18 11:38:45;;;;;;;3.83;1.58;;;8.20;86.70;;;;;;6347268;22;20009;-90
2024/01/18 11:41:26;;;;;;;6.88;1.27;;;8.20;85.10;;;;;;6345353;22;20099;-89
2024/01/18 11:43:54;;;;;;;;;;;8.10;84.20;;;;;;6345797;22;19998;-88
2024/01/18 11:46:35;;;;;;;6.90;1.95;;;8.10;83.90;;;;;;6345811;22;19941;-90
2024/01/18 11:49:05;;;;;;;4.18;0.85;;;8.30;84.20;;;;;;6345790;22;19994;-92
2024/01/18 11:51:31;;;;;;;2.22;0.82;;;8.50;82.90;;;;;;6345309;22;20442;-92
2024/01/18 11:54:08;;;;;;;7.40;1.92;;;8.60;81.60;;;;;;6343538;22;20030;-89
2024/01/18 11:56:39;;;;;;;10.25;2.30;;;8.80;80.80;;;;;;6345411;22;20010;-92
2024/01/18 11:59:22;;;;;;;10.82;2.13;;;9.00;79.70;;;;;;6371356;22;20006;-91
2024/01/18 12:01:47;;;;;;;6.25;1.42;;;9.20;79.30;;;;;;6344534;22;20005;-89
2024/01/18 12:04:24;;;;;;;3.08;1.30;;;9.50;78.30;;;;;;6344932;22;19999;-90
2024/01/18 12:07:07;;;;;;;6.28;1.77;;;9.60;76.80;;;;;;6372939;22;19991;-91
2024/01/18 12:09:43;;;;;;;2.50;0.88;;;9.70;76.10;;;;;;6385583;22;20078;-91
2024/01/18 12:12:28;;;;;;;6.53;1.23;;;9.90;75.10;;;;;;6366588;22;20003;-93
2024/01/18 12:14:55;;;;;;;4.78;1.58;;;9.80;74.00;;;;;;6317382;22;20014;-91
2024/01/18 12:17:22;;;;;;;5.45;1.35;;;9.90;73.60;;;;;;6343547;22;20018;-91
2024/01/18 12:19:49;;;;;;;5.53;1.10;;;10.00;72.60;;;;;;6343350;22;20078;-90
2024/01/18 12:22:18;;;;;;;3.45;1.08;;;10.10;72.00;;;;;;6343652;22;20007;-92
2024/01/18 12:24:48;;;;;;;8.90;2.00;;;10.20;71.70;;;;;;6371509;22;20005;-92
2024/01/18 12:27:14;;;;;;;13.38;2.70;;;10.40;71.20;;;;;;6344332;22;20434;-89
2024/01/18 12:29:41;;;;;;;14.23;2.28;;;10.80;70.60;;;;;;6342884;22;20006;-89
2024/01/18 12:32:08;;;;;;;7.90;1.90;;;11.10;69.90;;;;;;6342171;22;20002;-90
2024/01/18 12:34:35;;;;;;;5.93;1.15;;;11.30;68.60;;;;;;6343300;22;20007;-89
2024/01/18 12:37:02;;;;;;;5.00;1.02;;;11.30;67.50;;;;;;6344526;22;20018;-91
2024/01/18 12:39:32;;;;;;;4.00;1.00;;;11.40;67.40;;;;;;6343822;22;20006;-91
2024/01/18 12:41:58;;;;;;;2.75;1.35;;;11.60;66.70;;;;;;6343974;22;20002;-90
2024/01/18 12:44:24;;;;;;;5.97;1.55;;;11.70;66.10;;;;;;6344170;22;20010;-91
2024/01/18 12:46:58;;;;;;;2.67;0.75;;;12.00;65.50;;;;;;6372256;22;20071;-90